S/y Tatsu — MKEM9 — position and weather

sailwx.info

Track history (hours):
 
Tides and Currents Weather Stations Pressure Air Temp Water Temp Dewpoint Dewpoint Depression Visibility Wind Speed Wind Dir Waves Ship Positions

S/y Tatsu

Last reported at 2017-Apr-21 13:05 UTC. Time now 2017-Apr-26 06:08 UTC.
Position N 50°11' W 003°41'.

Length 11 m.

Type: Sailing vessel. MMSI: 235071049.

Date/timePositionNaut miles runAvg speedWind from/ knotsBaromVisibWave heightAir tempDewpointWater temp
2017-Apr-21 13:05N 50°11' W 003°41'0 4.8
2017-Apr-21 13:00N 50°11' W 003°40'2 4.9
2017-Apr-21 12:31N 50°12' W 003°36'2 4.8
2017-Apr-21 12:00N 50°15' W 003°34'3 5.4
2017-Apr-21 11:30N 50°17' W 003°34'4 5.1
2017-Apr-21 10:46N 50°21' W 003°35'0 1.0
2017-Apr-21 10:20N 50°21' W 003°34'  
2017-Apr-17 16:07N 50°23' W 003°36'0 0.0
2017-Apr-17 15:42N 50°23' W 003°36'0 0.0
2017-Apr-17 15:27N 50°23' W 003°36'2 3.5
2017-Apr-17 14:50N 50°21' W 003°34'2 5.3
2017-Apr-17 14:28N 50°20' W 003°32'6 6.0
2017-Apr-17 13:30N 50°21' W 003°23'3 5.8
2017-Apr-17 13:00N 50°21' W 003°19'3 5.6
2017-Apr-17 12:30N 50°22' W 003°14'3 5.5
2017-Apr-17 11:55N 50°23' W 003°09'2 5.3
2017-Apr-17 11:30N 50°23' W 003°06'3 5.2
2017-Apr-17 11:00N 50°24' W 003°02'  
2017-Apr-12 18:49N 50°39' W 001°56'0 0.0
2017-Apr-12 18:25N 50°39' W 001°56'0 0.0
2017-Apr-12 17:58N 50°39' W 001°56'0 0.8
2017-Apr-12 17:30N 50°39' W 001°55'2 4.8
2017-Apr-12 17:00N 50°39' W 001°52'3 5.6
2017-Apr-12 16:30N 50°40' W 001°47'3 5.3
2017-Apr-12 16:00N 50°39' W 001°43'3 5.6
2017-Apr-12 15:29N 50°39' W 001°39'4 8.0
2017-Apr-12 14:59N 50°41' W 001°34'10 7.2
2017-Apr-12 13:36N 50°46' W 001°19'1 6.9
2017-Apr-12 13:30N 50°46' W 001°18'3 5.4
2017-Apr-12 13:00N 50°47' W 001°14'2 4.8
2017-Apr-12 12:30N 50°46' W 001°10'2 4.4
2017-Apr-12 12:00N 50°47' W 001°07'1 1.8
2017-Apr-12 11:30N 50°48' W 001°07'0 0.8
2017-Apr-12 10:58N 50°47' W 001°07'0 0.0
2017-Apr-12 10:28N 50°47' W 001°07'0 0.0
2017-Apr-12 10:00N 50°47' W 001°07'0 0.0
2017-Apr-12 09:30N 50°47' W 001°07'0 0.0
2017-Apr-12 09:00N 50°47' W 001°07'  
Track history (hours):
 
Tides and Currents Weather Stations Pressure Air Temp Water Temp Dewpoint Dewpoint Depression Visibility Wind Speed Wind Dir Waves Ship Positions

S/y Tatsu

Last reported at 2017-Apr-21 13:05 UTC. Time now 2017-Apr-26 06:08 UTC.
Position N 50°11' W 003°41'.

Length 11 m.

Type: Sailing vessel. MMSI: 235071049.

Date/timePositionNaut miles runAvg speedWind from/ knotsBaromVisibWave heightAir tempDewpointWater temp
2017-Apr-21 13:05N 50°11' W 003°41'0 4.8
2017-Apr-21 13:00N 50°11' W 003°40'2 4.9
2017-Apr-21 12:31N 50°12' W 003°36'2 4.8
2017-Apr-21 12:00N 50°15' W 003°34'3 5.4
2017-Apr-21 11:30N 50°17' W 003°34'4 5.1
2017-Apr-21 10:46N 50°21' W 003°35'0 1.0
2017-Apr-21 10:20N 50°21' W 003°34'  
2017-Apr-17 16:07N 50°23' W 003°36'0 0.0
2017-Apr-17 15:42N 50°23' W 003°36'0 0.0
2017-Apr-17 15:27N 50°23' W 003°36'2 3.5
2017-Apr-17 14:50N 50°21' W 003°34'2 5.3
2017-Apr-17 14:28N 50°20' W 003°32'6 6.0
2017-Apr-17 13:30N 50°21' W 003°23'3 5.8
2017-Apr-17 13:00N 50°21' W 003°19'3 5.6
2017-Apr-17 12:30N 50°22' W 003°14'3 5.5
2017-Apr-17 11:55N 50°23' W 003°09'2 5.3
2017-Apr-17 11:30N 50°23' W 003°06'3 5.2
2017-Apr-17 11:00N 50°24' W 003°02'  
2017-Apr-12 18:49N 50°39' W 001°56'0 0.0
2017-Apr-12 18:25N 50°39' W 001°56'0 0.0
2017-Apr-12 17:58N 50°39' W 001°56'0 0.8
2017-Apr-12 17:30N 50°39' W 001°55'2 4.8
2017-Apr-12 17:00N 50°39' W 001°52'3 5.6
2017-Apr-12 16:30N 50°40' W 001°47'3 5.3
2017-Apr-12 16:00N 50°39' W 001°43'3 5.6
2017-Apr-12 15:29N 50°39' W 001°39'4 8.0
2017-Apr-12 14:59N 50°41' W 001°34'10 7.2
2017-Apr-12 13:36N 50°46' W 001°19'1 6.9
2017-Apr-12 13:30N 50°46' W 001°18'3 5.4
2017-Apr-12 13:00N 50°47' W 001°14'2 4.8
2017-Apr-12 12:30N 50°46' W 001°10'2 4.4
2017-Apr-12 12:00N 50°47' W 001°07'1 1.8
2017-Apr-12 11:30N 50°48' W 001°07'0 0.8
2017-Apr-12 10:58N 50°47' W 001°07'0 0.0
2017-Apr-12 10:28N 50°47' W 001°07'0 0.0
2017-Apr-12 10:00N 50°47' W 001°07'0 0.0
2017-Apr-12 09:30N 50°47' W 001°07'0 0.0
2017-Apr-12 09:00N 50°47' W 001°07'  

Dump ship's entire track history